Time;durP1;ratioP1;P1;durP2;ratioP2;P2;SDS_P1;SDS_P2;PMS_P1;PMS_P2;Temp;Humidity;BMP_temperature;BMP_pressure;BME280_temperature;BME280_humidity;BME280_pressure;Samples;Min_cycle;Max_cycle;Signal;HPM_P1;HPM_P2
2022/12/23 00:00:13;;;;;;;23.10;13.17;;;6.10;99.90;;;;;;5069001;28;20756;-73
2022/12/23 00:02:40;;;;;;;29.10;13.63;;;6.10;99.90;;;;;;5069209;28;20234;-74
2022/12/23 00:05:07;;;;;;;23.33;12.73;;;6.10;99.90;;;;;;5069273;28;20203;-74
2022/12/23 00:07:34;;;;;;;22.20;12.20;;;6.10;99.90;;;;;;5058380;28;20648;-75
2022/12/23 00:10:01;;;;;;;23.73;12.80;;;6.10;99.90;;;;;;5048518;28;20232;-73
2022/12/23 00:15:28;;;;;;;19.17;12.13;;;6.10;99.90;;;;;;5026029;28;20205;-73
2022/12/23 00:17:55;;;;;;;21.97;12.60;;;6.10;99.90;;;;;;5026058;28;20292;-74
2022/12/23 00:20:22;;;;;;;23.87;12.43;;;6.10;99.90;;;;;;5035753;28;20218;-74
2022/12/23 00:23:07;;;;;;;22.23;12.87;;;6.10;99.90;;;;;;5049923;28;20601;-74
2022/12/23 00:25:43;;;;;;;25.13;13.47;;;6.10;99.90;;;;;;5049984;28;20204;-74
2022/12/23 00:28:12;;;;;;;21.57;12.37;;;6.10;99.90;;;;;;5061108;28;20206;-73
2022/12/23 00:30:45;;;;;;;23.10;12.70;;;6.10;99.90;;;;;;5068514;28;20322;-73
2022/12/23 00:33:12;;;;;;;21.20;12.60;;;6.10;99.90;;;;;;5068524;28;20214;-74
2022/12/23 00:35:39;;;;;;;20.63;12.90;;;6.10;99.90;;;;;;5068322;28;20699;-73
2022/12/23 00:38:06;;;;;;;23.43;12.70;;;6.20;99.90;;;;;;5068075;28;20295;-73
2022/12/23 00:43:17;;;;;;;19.43;11.37;;;6.20;99.90;;;;;;5067982;28;20306;-73
2022/12/23 00:45:46;;;;;;;23.27;12.90;;;6.20;99.90;;;;;;5068139;28;20238;-73
2022/12/23 00:50:58;;;;;;;23.57;12.43;;;6.20;99.90;;;;;;5067988;28;20731;-73
2022/12/23 00:53:24;;;;;;;23.17;12.07;;;6.20;99.90;;;;;;5068086;28;20246;-73
2022/12/23 00:55:51;;;;;;;17.60;11.60;;;6.20;99.90;;;;;;5068029;28;20305;-73
2022/12/23 00:58:20;;;;;;;20.93;12.63;;;6.20;99.90;;;;;;5067438;28;20238;-73
2022/12/23 01:06:17;;;;;;;20.70;12.17;;;6.30;99.90;;;;;;5050741;28;20399;-73
2022/12/23 01:08:44;;;;;;;22.43;12.27;;;6.30;99.90;;;;;;5047963;28;20299;-73
2022/12/23 01:11:12;;;;;;;20.93;12.80;;;6.30;99.90;;;;;;5047832;28;20258;-73
2022/12/23 01:13:39;;;;;;;21.27;13.10;;;6.30;99.90;;;;;;5047918;28;20227;-73
2022/12/23 01:16:10;;;;;;;22.03;12.70;;;6.20;99.90;;;;;;5047995;28;20255;-73
2022/12/23 01:18:38;;;;;;;20.57;11.77;;;6.20;99.90;;;;;;5048174;28;20192;-73
2022/12/23 01:21:06;;;;;;;20.53;11.43;;;6.20;99.90;;;;;;5058403;28;20850;-74
2022/12/23 01:23:33;;;;;;;19.13;11.57;;;6.20;99.90;;;;;;5065735;28;20207;-74
2022/12/23 01:26:02;;;;;;;17.83;11.70;;;6.20;99.90;;;;;;5067486;28;20200;-74
2022/12/23 01:28:30;;;;;;;18.77;11.10;;;6.10;99.90;;;;;;5068043;28;20306;-74
2022/12/23 01:30:59;;;;;;;20.47;10.43;;;6.10;99.90;;;;;;5061709;28;20232;-74
2022/12/23 01:33:27;;;;;;;18.17;10.93;;;6.10;99.90;;;;;;5047305;28;20737;-74
2022/12/23 01:36:00;;;;;;;16.93;10.97;;;6.10;99.90;;;;;;5047506;28;20214;-74
2022/12/23 01:38:26;;;;;;;17.03;10.93;;;6.10;99.90;;;;;;5047410;28;20193;-74
2022/12/23 01:40:53;;;;;;;15.77;10.90;;;6.10;99.90;;;;;;5047380;28;20302;-73
2022/12/23 01:43:20;;;;;;;17.20;10.73;;;6.10;99.90;;;;;;5046997;28;20207;-73
2022/12/23 01:45:47;;;;;;;16.33;10.30;;;6.10;99.90;;;;;;5047617;28;20215;-73
2022/12/23 01:48:19;;;;;;;13.63;10.37;;;6.10;99.90;;;;;;5047090;28;20490;-74
2022/12/23 01:50:53;;;;;;;17.67;10.80;;;6.10;99.90;;;;;;5055321;28;20764;-73
2022/12/23 01:53:24;;;;;;;17.33;10.63;;;6.10;99.90;;;;;;5067227;28;20927;-73
2022/12/23 01:55:54;;;;;;;15.73;10.30;;;6.10;99.90;;;;;;5067339;28;20215;-74
2022/12/23 01:58:25;;;;;;;20.60;11.20;;;6.10;99.90;;;;;;5066892;28;20682;-74
2022/12/23 02:03:43;;;;;;;17.53;11.10;;;6.10;99.90;;;;;;5046918;28;20649;-74
2022/12/23 02:09:17;;;;;;;18.90;11.90;;;6.10;99.90;;;;;;5046928;28;20198;-74
2022/12/23 02:12:20;;;;;;;24.63;12.53;;;6.10;99.90;;;;;;5051133;28;20314;-74
2022/12/23 02:18:05;;;;;;;23.33;12.60;;;6.10;99.90;;;;;;5070762;28;20248;-74
2022/12/23 02:21:04;;;;;;;25.33;13.13;;;6.10;99.90;;;;;;5070831;28;20207;-74
2022/12/23 02:24:10;;;;;;;22.60;12.77;;;6.10;99.90;;;;;;5063276;28;20734;-74
2022/12/23 02:27:18;;;;;;;21.57;12.67;;;6.10;99.90;;;;;;5051557;28;20840;-74
2022/12/23 02:30:36;;;;;;;23.00;13.33;;;6.10;99.90;;;;;;5030150;28;20211;-74
2022/12/23 02:33:29;;;;;;;21.83;13.40;;;6.10;99.90;;;;;;4988773;28;20296;-74
2022/12/23 02:36:06;;;;;;;22.57;13.70;;;6.10;99.90;;;;;;4988946;28;20218;-74
2022/12/23 02:38:42;;;;;;;22.10;12.97;;;6.10;99.90;;;;;;5038741;28;20290;-74
2022/12/23 02:41:15;;;;;;;23.20;13.40;;;6.20;99.90;;;;;;5050571;28;20195;-74
2022/12/23 02:43:45;;;;;;;25.20;14.30;;;6.20;99.90;;;;;;5050583;28;20304;-74
2022/12/23 02:46:17;;;;;;;24.57;13.60;;;6.20;99.90;;;;;;5050656;28;20212;-74
2022/12/23 02:48:53;;;;;;;21.43;13.00;;;6.20;99.90;;;;;;5050123;28;20271;-73
2022/12/23 02:51:24;;;;;;;23.80;13.33;;;6.20;99.90;;;;;;5063399;28;20257;-74
2022/12/23 02:53:54;;;;;;;22.40;14.00;;;6.20;99.90;;;;;;5070391;28;20655;-74
2022/12/23 02:56:24;;;;;;;22.20;13.77;;;6.20;99.90;;;;;;5069852;28;20219;-73
2022/12/23 02:58:58;;;;;;;23.50;14.50;;;6.30;99.90;;;;;;5052482;28;20208;-74
2022/12/23 03:01:27;;;;;;;24.03;14.53;;;6.30;99.90;;;;;;5050123;28;21093;-74
2022/12/23 03:03:55;;;;;;;25.90;14.30;;;6.30;99.90;;;;;;5049936;28;20199;-73
2022/12/23 03:06:25;;;;;;;24.23;13.60;;;6.30;99.90;;;;;;5050432;28;20251;-74
2022/12/23 03:08:55;;;;;;;22.60;14.10;;;6.30;99.90;;;;;;5049873;28;20299;-74
2022/12/23 03:11:38;;;;;;;20.47;12.10;;;6.30;99.90;;;;;;5050265;28;20604;-73
2022/12/23 03:14:22;;;;;;;19.87;12.40;;;6.30;99.90;;;;;;5066685;28;20207;-73
2022/12/23 03:16:53;;;;;;;24.00;13.77;;;6.20;99.90;;;;;;5070175;28;20290;-73
2022/12/23 03:19:30;;;;;;;22.60;13.53;;;6.30;99.90;;;;;;5069797;28;20282;-73
2022/12/23 03:22:07;;;;;;;27.83;14.17;;;6.30;99.90;;;;;;5069800;28;20604;-73
2022/12/23 03:24:40;;;;;;;22.50;13.87;;;6.30;99.90;;;;;;5054777;28;20204;-73
2022/12/23 03:27:11;;;;;;;23.10;13.80;;;6.30;99.90;;;;;;5049890;28;20690;-73
2022/12/23 03:29:43;;;;;;;22.23;14.30;;;6.30;99.90;;;;;;5049727;28;20206;-73
2022/12/23 03:32:13;;;;;;;27.57;14.97;;;6.30;99.90;;;;;;5049615;28;20745;-74
2022/12/23 03:34:45;;;;;;;26.63;14.57;;;6.40;99.90;;;;;;5049840;28;20235;-73
2022/12/23 03:37:14;;;;;;;24.47;14.50;;;6.40;99.90;;;;;;5049692;28;20287;-73
2022/12/23 03:39:46;;;;;;;23.13;13.17;;;6.40;99.90;;;;;;5049260;28;20269;-74
2022/12/23 03:42:17;;;;;;;23.67;13.53;;;6.40;99.90;;;;;;5049592;28;20196;-74
2022/12/23 03:44:47;;;;;;;23.80;13.60;;;6.40;99.90;;;;;;5049554;28;20634;-74
2022/12/23 03:47:18;;;;;;;22.50;12.97;;;6.40;99.90;;;;;;5049618;28;20556;-73
2022/12/23 03:49:50;;;;;;;25.07;13.90;;;6.40;99.90;;;;;;5049534;28;20620;-74
2022/12/23 03:52:24;;;;;;;20.20;12.70;;;6.50;99.90;;;;;;5048896;28;20246;-74
2022/12/23 03:54:54;;;;;;;22.17;12.83;;;6.40;99.90;;;;;;5049026;28;20711;-73
2022/12/23 03:57:25;;;;;;;21.53;12.60;;;6.50;99.90;;;;;;5049228;28;20658;-74
2022/12/23 03:59:53;;;;;;;24.23;13.97;;;6.40;99.90;;;;;;5049201;28;20726;-73
2022/12/23 04:02:24;;;;;;;19.47;12.47;;;6.40;99.90;;;;;;5049545;28;20204;-73
2022/12/23 04:05:12;;;;;;;21.60;12.50;;;6.40;99.90;;;;;;5049330;28;20275;-74
2022/12/23 04:07:41;;;;;;;23.30;13.13;;;6.50;99.90;;;;;;5049100;28;20588;-75
2022/12/23 04:10:10;;;;;;;21.13;11.97;;;6.50;99.90;;;;;;5063498;28;20209;-75
2022/12/23 04:12:39;;;;;;;21.23;11.43;;;6.50;99.90;;;;;;5068969;28;20245;-75
2022/12/23 04:15:06;;;;;;;21.07;12.00;;;6.40;99.90;;;;;;5069136;28;20290;-75
2022/12/23 04:17:34;;;;;;;22.27;12.60;;;6.50;99.90;;;;;;5069191;28;20290;-74
2022/12/23 04:20:02;;;;;;;20.43;12.43;;;6.50;99.90;;;;;;5068625;28;20269;-74
2022/12/23 04:22:29;;;;;;;18.87;12.27;;;6.50;99.90;;;;;;5069017;28;20318;-75
2022/12/23 04:24:56;;;;;;;21.20;12.17;;;6.50;99.90;;;;;;5049282;28;20592;-75
2022/12/23 04:27:22;;;;;;;16.57;10.73;;;6.50;99.90;;;;;;5048275;28;20298;-74
2022/12/23 04:29:49;;;;;;;16.13;11.00;;;6.50;99.90;;;;;;5048589;28;20299;-75
2022/12/23 04:32:16;;;;;;;22.17;13.23;;;6.50;99.90;;;;;;5047739;28;20243;-75
2022/12/23 04:34:43;;;;;;;25.90;13.47;;;6.50;99.90;;;;;;5048938;28;20212;-75
2022/12/23 04:37:11;;;;;;;21.17;12.57;;;6.50;99.90;;;;;;5048576;28;20291;-75
2022/12/23 04:39:38;;;;;;;18.30;12.23;;;6.50;99.90;;;;;;5048269;28;20287;-75
2022/12/23 04:42:05;;;;;;;22.50;12.93;;;6.50;99.90;;;;;;5048266;28;20752;-75
2022/12/23 04:44:32;;;;;;;24.90;13.47;;;6.60;99.90;;;;;;5048901;28;20296;-74
2022/12/23 04:46:59;;;;;;;20.67;12.80;;;6.50;99.90;;;;;;5048426;28;20204;-73
2022/12/23 04:49:26;;;;;;;21.13;13.13;;;6.50;99.90;;;;;;5061658;28;20239;-74
2022/12/23 04:51:53;;;;;;;21.17;12.83;;;6.60;99.90;;;;;;5065420;28;20338;-74
2022/12/23 04:54:21;;;;;;;21.27;12.97;;;6.50;99.90;;;;;;5068104;28;20250;-75
2022/12/23 04:56:48;;;;;;;26.13;13.53;;;6.50;99.90;;;;;;5068351;28;20298;-74
2022/12/23 04:59:15;;;;;;;21.77;12.17;;;6.50;99.90;;;;;;5068606;28;20207;-74
2022/12/23 05:01:42;;;;;;;22.20;12.93;;;6.60;99.90;;;;;;5068362;28;20238;-74
2022/12/23 05:04:10;;;;;;;20.57;11.87;;;6.60;99.90;;;;;;5068480;28;20298;-74
2022/12/23 05:06:37;;;;;;;17.43;11.47;;;6.60;99.90;;;;;;5067865;28;20298;-73
2022/12/23 05:09:05;;;;;;;19.13;12.07;;;6.60;99.90;;;;;;5058336;28;20205;-73
2022/12/23 05:11:33;;;;;;;17.83;11.67;;;6.60;99.90;;;;;;5048194;28;20319;-73
2022/12/23 05:14:00;;;;;;;20.67;11.80;;;6.50;99.90;;;;;;5047740;28;20293;-73
2022/12/23 05:16:27;;;;;;;20.37;13.20;;;6.60;99.90;;;;;;5057326;28;20577;-74
2022/12/23 05:18:54;;;;;;;20.97;12.40;;;6.60;99.90;;;;;;5067514;28;20729;-74
2022/12/23 05:21:21;;;;;;;21.60;12.53;;;6.50;99.90;;;;;;5054451;28;20312;-74
2022/12/23 05:23:48;;;;;;;18.57;11.30;;;6.60;99.90;;;;;;5057217;28;20638;-74
2022/12/23 05:26:14;;;;;;;18.90;11.60;;;6.60;99.90;;;;;;5067590;28;20234;-74
2022/12/23 05:28:44;;;;;;;20.83;11.80;;;6.60;99.90;;;;;;5067607;28;20286;-74
2022/12/23 05:31:12;;;;;;;20.47;12.17;;;6.60;99.90;;;;;;5067530;28;20303;-74
2022/12/23 05:33:39;;;;;;;24.53;12.50;;;6.60;99.90;;;;;;5067535;28;20214;-74
2022/12/23 05:36:07;;;;;;;19.37;11.97;;;6.60;99.90;;;;;;5067744;28;20301;-74
2022/12/23 05:38:34;;;;;;;19.20;10.90;;;6.60;99.90;;;;;;5067517;28;20241;-74
2022/12/23 05:41:02;;;;;;;20.50;11.50;;;6.60;99.90;;;;;;5067114;28;20330;-74
2022/12/23 05:43:29;;;;;;;16.83;10.77;;;6.60;99.90;;;;;;5067092;28;20256;-74
2022/12/23 05:45:57;;;;;;;17.50;10.60;;;6.60;99.90;;;;;;5063475;28;20208;-74
2022/12/23 05:48:25;;;;;;;17.27;10.77;;;6.50;99.90;;;;;;5047062;28;20718;-74
2022/12/23 05:50:52;;;;;;;20.83;11.40;;;6.60;99.90;;;;;;5056713;28;20512;-74
2022/12/23 05:53:20;;;;;;;17.37;10.63;;;6.50;99.90;;;;;;5067063;28;20235;-74
2022/12/23 05:55:47;;;;;;;19.03;11.57;;;6.60;99.90;;;;;;5067456;28;20314;-74
2022/12/23 05:58:14;;;;;;;17.53;10.73;;;6.60;99.90;;;;;;5067352;28;20306;-73
2022/12/23 06:00:41;;;;;;;17.93;11.10;;;6.50;99.90;;;;;;5067072;28;20211;-74
2022/12/23 06:03:09;;;;;;;17.47;10.67;;;6.50;99.90;;;;;;5048585;28;20633;-74
2022/12/23 06:05:37;;;;;;;18.53;11.17;;;6.50;99.90;;;;;;5058803;28;20733;-74
2022/12/23 06:08:05;;;;;;;19.20;11.43;;;6.50;99.90;;;;;;5067417;28;20207;-73
2022/12/23 06:10:32;;;;;;;16.47;10.03;;;6.60;99.90;;;;;;5066930;28;20572;-73
2022/12/23 06:12:58;;;;;;;13.57;9.23;;;6.60;99.90;;;;;;5067258;28;20314;-73
2022/12/23 06:15:25;;;;;;;20.00;10.77;;;6.60;99.90;;;;;;5067294;28;20308;-73
2022/12/23 06:17:52;;;;;;;22.10;11.73;;;6.60;99.90;;;;;;5067108;28;20297;-73
2022/12/23 06:20:20;;;;;;;17.00;10.80;;;6.60;99.90;;;;;;5067112;28;20299;-72
2022/12/23 06:22:47;;;;;;;17.47;10.60;;;6.60;99.90;;;;;;5066864;28;20298;-72
2022/12/23 06:25:14;;;;;;;18.57;11.73;;;6.50;99.90;;;;;;5066883;28;20298;-73
2022/12/23 06:27:41;;;;;;;20.73;11.63;;;6.50;99.90;;;;;;5067049;28;20207;-73
2022/12/23 06:30:09;;;;;;;20.33;11.53;;;6.60;99.90;;;;;;5067280;28;20214;-73
2022/12/23 06:32:36;;;;;;;22.17;11.93;;;6.50;99.90;;;;;;5066984;28;20235;-73
2022/12/23 06:35:04;;;;;;;25.57;14.23;;;6.60;99.90;;;;;;5067147;28;20306;-74
2022/12/23 06:37:32;;;;;;;24.63;14.23;;;6.60;99.90;;;;;;5067130;28;20282;-74
2022/12/23 06:39:59;;;;;;;25.37;13.20;;;6.50;99.90;;;;;;5067080;28;20623;-74
2022/12/23 06:42:26;;;;;;;24.60;12.40;;;6.60;99.90;;;;;;5061035;28;20243;-74
2022/12/23 06:44:53;;;;;;;19.20;11.27;;;6.60;99.90;;;;;;5046845;28;20290;-74
2022/12/23 06:47:20;;;;;;;18.20;10.93;;;6.60;99.90;;;;;;5046250;28;20283;-73
2022/12/23 06:49:46;;;;;;;15.83;10.10;;;6.60;99.90;;;;;;5046674;28;20295;-73
2022/12/23 06:52:13;;;;;;;17.53;10.00;;;6.60;99.90;;;;;;5046840;28;20327;-73
2022/12/23 06:54:41;;;;;;;11.83;8.30;;;6.60;99.90;;;;;;5046236;28;20302;-73
2022/12/23 06:57:08;;;;;;;13.43;8.20;;;6.50;99.90;;;;;;5049595;28;20765;-73
2022/12/23 06:59:35;;;;;;;9.70;7.43;;;6.60;99.90;;;;;;5070341;28;20637;-73
2022/12/23 07:02:03;;;;;;;12.50;8.17;;;6.50;99.90;;;;;;5070720;28;20629;-73
2022/12/23 07:04:30;;;;;;;11.60;7.87;;;6.50;99.90;;;;;;5070324;28;20231;-74
2022/12/23 07:06:57;;;;;;;11.30;8.00;;;6.50;99.90;;;;;;5070360;28;20211;-74
2022/12/23 07:09:25;;;;;;;8.33;6.77;;;6.50;99.90;;;;;;5056299;28;20204;-74
2022/12/23 07:11:53;;;;;;;9.23;6.03;;;6.50;99.90;;;;;;5050360;28;20566;-74
2022/12/23 07:14:20;;;;;;;9.17;5.60;;;6.50;99.90;;;;;;5050447;28;20208;-74
2022/12/23 07:16:47;;;;;;;8.87;5.37;;;6.40;99.90;;;;;;5050203;28;20670;-73
2022/12/23 07:19:14;;;;;;;11.87;6.13;;;6.50;99.90;;;;;;5050287;28;20205;-73
2022/12/23 07:21:40;;;;;;;8.70;6.20;;;6.40;99.90;;;;;;5065391;28;20724;-73
2022/12/23 07:24:08;;;;;;;11.40;6.43;;;6.40;99.90;;;;;;5069980;28;20298;-74
2022/12/23 07:26:35;;;;;;;14.87;6.90;;;6.40;99.90;;;;;;5070044;28;20295;-74
2022/12/23 07:29:04;;;;;;;11.60;7.47;;;6.40;99.90;;;;;;5070144;28;20218;-74
2022/12/23 07:31:30;;;;;;;18.47;8.50;;;6.40;99.90;;;;;;5070012;28;20203;-74
2022/12/23 07:33:57;;;;;;;21.53;9.00;;;6.40;99.90;;;;;;5069516;28;20603;-74
2022/12/23 07:36:24;;;;;;;12.23;6.47;;;6.50;99.90;;;;;;5069015;28;20295;-74
2022/12/23 07:38:51;;;;;;;15.50;7.97;;;6.50;99.90;;;;;;5049551;28;20299;-75
2022/12/23 07:41:18;;;;;;;20.07;10.67;;;6.50;99.90;;;;;;5049727;28;20212;-74
2022/12/23 07:43:45;;;;;;;20.20;10.53;;;6.50;99.90;;;;;;5049709;28;20236;-74
2022/12/23 07:46:13;;;;;;;20.77;9.70;;;6.50;99.90;;;;;;5049767;28;20204;-74
2022/12/23 07:48:41;;;;;;;24.00;11.17;;;6.50;99.90;;;;;;5048938;28;20714;-74
2022/12/23 07:51:08;;;;;;;26.70;11.33;;;6.50;99.90;;;;;;5060578;28;20747;-74
2022/12/23 07:53:35;;;;;;;23.40;10.60;;;6.50;99.90;;;;;;5069351;28;20234;-74
2022/12/23 07:56:02;;;;;;;22.80;10.83;;;6.50;99.90;;;;;;5069478;28;20206;-74
2022/12/23 07:58:28;;;;;;;22.70;10.27;;;6.50;99.90;;;;;;5069290;28;20294;-74
2022/12/23 08:01:02;;;;;;;23.20;9.97;;;6.50;99.90;;;;;;5069523;28;20214;-74
2022/12/23 08:03:31;;;;;;;22.17;11.00;;;6.50;99.90;;;;;;5069323;28;20290;-74
2022/12/23 08:06:01;;;;;;;28.23;13.43;;;6.50;99.90;;;;;;5068961;28;20212;-74
2022/12/23 08:08:28;;;;;;;29.77;12.60;;;6.50;99.90;;;;;;5069034;28;20203;-73
2022/12/23 08:10:59;;;;;;;41.50;15.53;;;6.40;99.90;;;;;;5068995;28;20291;-73
2022/12/23 08:13:27;;;;;;;47.27;18.07;;;6.50;99.90;;;;;;5068882;28;20231;-74
2022/12/23 08:15:57;;;;;;;44.57;16.27;;;6.40;99.90;;;;;;5069080;28;20203;-72
2022/12/23 08:18:25;;;;;;;38.10;15.27;;;6.50;99.90;;;;;;5069103;28;20298;-74
2022/12/23 08:20:58;;;;;;;37.40;13.67;;;6.50;99.90;;;;;;5060143;28;20298;-74
2022/12/23 08:23:26;;;;;;;46.83;14.47;;;6.50;99.90;;;;;;5049050;28;20291;-74
2022/12/23 08:26:00;;;;;;;35.10;13.20;;;6.50;99.90;;;;;;5048251;28;20299;-75
2022/12/23 08:28:27;;;;;;;40.13;14.07;;;6.50;99.90;;;;;;5048684;28;20651;-73
2022/12/23 08:30:54;;;;;;;37.03;13.63;;;6.60;99.90;;;;;;5048815;28;20476;-73
2022/12/23 08:33:21;;;;;;;38.40;13.33;;;6.60;99.90;;;;;;5054777;28;20233;-73
2022/12/23 08:35:48;;;;;;;42.80;14.67;;;6.60;99.90;;;;;;5055686;28;20299;-73
2022/12/23 08:38:16;;;;;;;37.80;13.43;;;6.60;99.90;;;;;;5048883;28;20299;-73
2022/12/23 08:40:43;;;;;;;38.30;13.33;;;6.60;99.90;;;;;;5048737;28;20246;-75
2022/12/23 08:43:10;;;;;;;33.77;12.40;;;6.70;99.90;;;;;;5048707;28;20279;-74
2022/12/23 08:45:38;;;;;;;45.07;14.20;;;6.70;99.90;;;;;;5048603;28;20291;-73
2022/12/23 08:48:05;;;;;;;45.97;13.23;;;6.70;99.90;;;;;;5045854;28;20232;-74
2022/12/23 08:50:37;;;;;;;38.07;13.93;;;6.70;99.90;;;;;;5047374;28;20618;-73
2022/12/23 08:53:04;;;;;;;40.97;13.07;;;6.70;99.90;;;;;;5045982;28;20756;-73
2022/12/23 08:55:37;;;;;;;47.57;14.03;;;6.70;99.90;;;;;;5045575;28;20208;-74
2022/12/23 08:58:04;;;;;;;47.77;14.63;;;6.70;99.90;;;;;;5045575;28;20291;-74
2022/12/23 09:00:31;;;;;;;54.90;17.00;;;6.70;99.90;;;;;;5046678;28;20306;-73
2022/12/23 09:02:58;;;;;;;45.57;17.20;;;6.70;99.90;;;;;;5045753;28;20241;-73
2022/12/23 09:05:25;;;;;;;44.87;14.60;;;6.70;99.90;;;;;;5045401;28;20567;-74
2022/12/23 09:07:52;;;;;;;45.80;14.57;;;6.70;99.90;;;;;;5045138;28;20572;-74
2022/12/23 09:10:19;;;;;;;46.07;13.77;;;6.80;99.90;;;;;;5045652;28;20274;-73
2022/12/23 09:12:47;;;;;;;49.60;13.97;;;6.80;99.90;;;;;;5045619;28;20238;-73
2022/12/23 09:15:14;;;;;;;42.00;11.80;;;6.80;99.90;;;;;;5046155;28;20230;-73
2022/12/23 09:17:41;;;;;;;45.43;12.47;;;6.80;99.90;;;;;;5045778;28;20294;-73
2022/12/23 09:20:09;;;;;;;49.83;11.70;;;6.80;99.90;;;;;;5045522;28;20207;-73
2022/12/23 09:22:36;;;;;;;52.60;12.00;;;6.80;99.90;;;;;;5045690;28;20212;-73
2022/12/23 09:25:03;;;;;;;44.90;11.27;;;6.80;99.90;;;;;;5045646;28;20236;-73
2022/12/23 09:27:30;;;;;;;41.07;11.73;;;6.80;99.90;;;;;;5045723;28;20257;-73
2022/12/23 09:29:58;;;;;;;37.47;11.10;;;6.80;99.90;;;;;;5045475;28;20240;-73
2022/12/23 09:32:25;;;;;;;39.03;10.47;;;6.80;99.90;;;;;;5045460;28;20743;-73
2022/12/23 09:34:52;;;;;;;33.80;10.37;;;6.80;99.90;;;;;;5045557;28;20642;-74
2022/12/23 09:37:19;;;;;;;40.60;10.53;;;6.80;99.90;;;;;;5045793;28;20243;-73
2022/12/23 09:39:46;;;;;;;40.13;11.70;;;6.80;99.90;;;;;;5056424;28;20200;-73
2022/12/23 09:42:31;;;;;;;35.63;10.50;;;6.80;99.90;;;;;;5065439;28;20208;-73
2022/12/23 09:45:19;;;;;;;35.17;10.10;;;6.90;99.90;;;;;;5065474;28;20192;-73
2022/12/23 09:47:46;;;;;;;38.33;9.87;;;6.80;99.90;;;;;;5055913;28;20236;-73
2022/12/23 09:50:21;;;;;;;38.27;10.27;;;6.90;99.90;;;;;;5058796;28;20624;-74
2022/12/23 09:52:56;;;;;;;37.73;10.70;;;6.80;99.90;;;;;;5064950;28;20211;-73
2022/12/23 09:55:28;;;;;;;40.83;11.03;;;6.80;99.90;;;;;;5065119;28;20278;-73
2022/12/23 09:58:00;;;;;;;30.87;10.87;;;6.90;99.90;;;;;;5065083;28;20298;-73
2022/12/23 10:00:35;;;;;;;38.33;10.90;;;6.90;99.90;;;;;;5065152;28;20192;-73
2022/12/23 10:03:16;;;;;;;32.40;9.90;;;6.90;99.90;;;;;;5065600;28;20722;-73
2022/12/23 10:05:55;;;;;;;35.90;11.37;;;6.90;99.90;;;;;;5065824;28;20201;-73
2022/12/23 10:08:29;;;;;;;31.73;9.50;;;6.80;99.90;;;;;;5065392;28;20195;-73
2022/12/23 10:11:00;;;;;;;33.13;9.93;;;6.90;99.90;;;;;;5063746;28;20301;-74
2022/12/23 10:13:29;;;;;;;34.13;10.77;;;6.90;99.90;;;;;;5052768;28;20255;-74
2022/12/23 10:16:04;;;;;;;33.03;10.43;;;6.90;99.90;;;;;;5053152;28;20678;-74
2022/12/23 10:18:42;;;;;;;35.07;10.97;;;7.00;99.90;;;;;;5057696;28;20274;-74
2022/12/23 10:21:14;;;;;;;31.93;10.87;;;6.90;99.90;;;;;;5057337;28;20650;-72
2022/12/23 10:23:48;;;;;;;33.57;11.23;;;7.00;99.90;;;;;;5054857;28;20656;-71
2022/12/23 10:26:21;;;;;;;31.27;9.63;;;7.00;99.90;;;;;;5058543;28;20661;-71
2022/12/23 10:28:49;;;;;;;31.27;11.77;;;7.00;99.90;;;;;;5056594;28;20207;-71
2022/12/23 10:31:26;;;;;;;30.80;10.83;;;7.00;99.90;;;;;;5057357;28;20223;-71
2022/12/23 10:34:04;;;;;;;30.60;9.90;;;7.10;99.90;;;;;;5056856;28;20269;-71
2022/12/23 10:36:41;;;;;;;26.90;9.67;;;7.10;99.90;;;;;;5058547;28;20188;-72
2022/12/23 10:39:17;;;;;;;26.27;10.30;;;7.10;99.90;;;;;;5057614;28;20283;-72
2022/12/23 10:41:55;;;;;;;29.37;10.00;;;7.10;99.90;;;;;;5055181;28;20237;-72
2022/12/23 10:44:48;;;;;;;26.43;10.80;;;7.10;99.90;;;;;;5060076;28;20264;-72
2022/12/23 10:47:27;;;;;;;27.40;10.40;;;7.20;99.90;;;;;;5051863;28;20195;-72
2022/12/23 10:50:09;;;;;;;26.93;10.73;;;7.20;99.90;;;;;;5064041;28;20223;-72
2022/12/23 10:52:40;;;;;;;27.53;10.90;;;7.20;99.90;;;;;;5062540;28;20208;-72
2022/12/23 10:55:21;;;;;;;22.50;10.47;;;7.20;99.90;;;;;;5060267;28;20258;-72
2022/12/23 10:57:49;;;;;;;23.97;9.93;;;7.20;99.90;;;;;;5060579;28;20705;-73
2022/12/23 11:00:21;;;;;;;25.53;11.10;;;7.20;99.90;;;;;;5057580;28;20287;-73
2022/12/23 11:03:06;;;;;;;23.20;11.13;;;7.20;99.90;;;;;;5058184;28;20245;-73
2022/12/23 11:05:34;;;;;;;19.60;10.53;;;7.20;99.90;;;;;;5063509;28;20310;-73
2022/12/23 11:08:02;;;;;;;17.20;10.80;;;7.30;99.90;;;;;;5070033;28;20303;-73
2022/12/23 11:10:32;;;;;;;20.63;10.57;;;7.20;99.90;;;;;;5057264;28;20196;-73
2022/12/23 11:13:00;;;;;;;21.07;10.43;;;7.20;99.90;;;;;;5059184;28;20295;-73
2022/12/23 11:15:31;;;;;;;19.87;10.67;;;7.20;99.90;;;;;;5068203;28;20290;-73
2022/12/23 11:18:01;;;;;;;19.07;10.23;;;7.30;99.90;;;;;;5063844;28;20279;-72
2022/12/23 11:20:29;;;;;;;19.90;10.50;;;7.20;99.90;;;;;;5064110;28;20239;-74
2022/12/23 11:23:00;;;;;;;15.83;9.37;;;7.20;99.90;;;;;;5062965;28;20208;-73
2022/12/23 11:25:31;;;;;;;18.73;10.93;;;7.20;99.90;;;;;;5049654;28;20228;-72
2022/12/23 11:28:00;;;;;;;17.57;10.33;;;7.20;99.90;;;;;;5049604;28;20733;-73
2022/12/23 11:30:28;;;;;;;19.17;10.77;;;7.20;99.90;;;;;;5049436;28;20287;-72
2022/12/23 11:32:56;;;;;;;22.23;10.90;;;7.20;99.90;;;;;;5047717;28;20300;-73
2022/12/23 11:35:29;;;;;;;24.20;11.87;;;7.20;99.90;;;;;;5047939;28;20299;-72
2022/12/23 11:37:57;;;;;;;22.87;11.77;;;7.20;99.90;;;;;;5048411;28;20295;-72
2022/12/23 11:40:27;;;;;;;22.40;11.73;;;7.20;99.90;;;;;;5064720;28;20306;-73
2022/12/23 11:42:59;;;;;;;25.57;13.23;;;7.20;99.90;;;;;;5067927;28;20294;-72
2022/12/23 11:45:29;;;;;;;23.30;13.00;;;7.20;99.90;;;;;;5068325;28;20214;-72
2022/12/23 11:47:56;;;;;;;20.90;11.73;;;7.20;99.90;;;;;;5059634;28;20294;-73
2022/12/23 11:50:31;;;;;;;23.63;12.90;;;7.20;99.90;;;;;;5055129;28;20270;-73
2022/12/23 11:53:12;;;;;;;20.73;11.97;;;7.10;99.90;;;;;;5048745;28;20273;-73
2022/12/23 11:55:46;;;;;;;22.97;12.37;;;7.20;99.90;;;;;;5048385;28;20188;-73
2022/12/23 11:58:19;;;;;;;22.67;11.23;;;7.20;99.90;;;;;;5048905;28;20721;-73
2022/12/23 12:00:53;;;;;;;19.43;11.00;;;7.20;99.90;;;;;;5048934;28;20193;-73
2022/12/23 12:03:23;;;;;;;20.20;11.00;;;7.20;99.90;;;;;;5048146;28;20192;-73
2022/12/23 12:05:54;;;;;;;19.17;11.20;;;7.20;99.90;;;;;;5048109;28;20215;-72
2022/12/23 12:08:26;;;;;;;20.90;10.70;;;7.20;99.90;;;;;;5049081;28;20283;-73
2022/12/23 12:11:05;;;;;;;19.23;11.00;;;7.20;99.90;;;;;;5055297;28;20204;-73
2022/12/23 12:13:38;;;;;;;19.10;10.67;;;7.20;99.90;;;;;;5068301;28;20253;-73
2022/12/23 12:16:37;;;;;;;17.67;10.37;;;7.10;99.90;;;;;;5061187;28;20226;-72
2022/12/23 12:19:09;;;;;;;19.93;10.60;;;7.10;99.90;;;;;;5047968;28;20195;-72
2022/12/23 12:21:39;;;;;;;19.37;10.23;;;7.20;99.90;;;;;;5058603;28;20302;-72
2022/12/23 12:24:08;;;;;;;18.80;8.60;;;7.20;99.90;;;;;;5055842;28;20295;-72
2022/12/23 12:26:37;;;;;;;19.30;9.07;;;7.20;99.90;;;;;;5054071;28;20199;-72
2022/12/23 12:29:13;;;;;;;18.53;9.50;;;7.30;99.90;;;;;;5051595;28;20326;-72
2022/12/23 12:31:45;;;;;;;17.40;9.80;;;7.30;99.90;;;;;;5044751;28;20194;-72
2022/12/23 12:34:25;;;;;;;17.70;9.37;;;7.30;99.90;;;;;;5063908;28;20298;-72
2022/12/23 12:36:58;;;;;;;16.17;9.27;;;7.30;99.90;;;;;;5064367;28;20205;-72
2022/12/23 12:39:30;;;;;;;17.20;9.07;;;7.40;99.90;;;;;;5064162;28;20207;-72
2022/12/23 12:42:02;;;;;;;15.17;9.23;;;7.40;99.90;;;;;;5064487;28;20315;-72
2022/12/23 12:44:36;;;;;;;16.10;9.30;;;7.40;99.90;;;;;;5060899;28;20192;-72
2022/12/23 12:47:10;;;;;;;17.07;9.40;;;7.50;99.90;;;;;;5056091;28;20433;-72
2022/12/23 12:49:43;;;;;;;18.30;10.53;;;7.50;99.90;;;;;;5044043;28;20239;-72
2022/12/23 12:52:13;;;;;;;18.00;10.03;;;7.50;99.90;;;;;;5063745;28;20298;-72
2022/12/23 12:54:44;;;;;;;15.07;9.80;;;7.50;99.90;;;;;;5063342;28;20619;-72
2022/12/23 12:57:14;;;;;;;13.87;9.30;;;7.40;99.90;;;;;;5064403;28;20191;-72
2022/12/23 12:59:43;;;;;;;14.00;9.20;;;7.40;99.90;;;;;;5063830;28;20288;-72
2022/12/23 13:02:41;;;;;;;17.13;10.20;;;7.30;99.90;;;;;;5064007;28;20291;-72
2022/12/23 13:05:34;;;;;;;14.37;9.50;;;7.30;99.90;;;;;;5063331;28;20214;-72
2022/12/23 13:08:14;;;;;;;17.33;10.27;;;7.30;99.90;;;;;;5064118;28;20290;-72
2022/12/23 13:10:46;;;;;;;14.93;9.63;;;7.40;99.90;;;;;;5063339;28;20221;-72
2022/12/23 13:13:33;;;;;;;13.77;9.20;;;7.40;99.90;;;;;;5063507;28;20808;-72
2022/12/23 13:16:08;;;;;;;14.40;10.17;;;7.40;99.90;;;;;;5053346;28;20640;-72
2022/12/23 13:18:43;;;;;;;14.17;9.83;;;7.40;99.90;;;;;;5063723;28;20834;-72